Time,TemperatureF,DewpointF,PressureIn,WindDirection,WindDirectionDegrees,WindSpeedMPH,WindSpeedGustMPH,Humidity,HourlyPrecipIn,Conditions,Clouds,dailyrainin,SoftwareType,DateUTC
2013-01-09 00:03:00,34.0,20.0,29.92,SSW,202,0.0,-999.0,56,-99.99,,,0.00,Acu-Link.com,2013-01-09 07:03:00,
2013-01-09 00:19:00,34.0,20.0,29.93,SSE,157,2.2,-999.0,56,-99.99,,,0.00,Acu-Link.com,2013-01-09 07:19:00,
2013-01-09 00:34:00,46.2,18.0,29.95,East,90,5.3,-999.0,32,-99.99,,,0.00,Acu-Link.com,2013-01-09 07:34:00,
2013-01-09 00:49:00,46.9,17.1,29.94,SSW,202,4.2,-999.0,30,-99.99,,,0.00,Acu-Link.com,2013-01-09 07:49:00,
2013-01-09 01:04:00,46.8,17.8,29.93,WSW,247,4.7,-999.0,31,-99.99,,,0.00,Acu-Link.com,2013-01-09 08:04:00,
2013-01-09 01:19:00,48.0,17.3,29.94,SE,135,4.2,-999.0,29,-99.99,,,0.00,Acu-Link.com,2013-01-09 08:19:00,
2013-01-09 01:34:00,46.0,17.8,29.94,West,270,2.2,-999.0,32,-99.99,,,0.00,Acu-Link.com,2013-01-09 08:34:00,
2013-01-09 01:49:00,48.0,22.3,29.95,SSE,157,2.7,-999.0,36,-99.99,,,0.00,Acu-Link.com,2013-01-09 08:49:00,
2013-01-09 02:11:00,46.6,20.4,29.96,WSW,247,0.0,-999.0,35,-99.99,,,0.00,Acu-Link.com,2013-01-09 09:11:00,
2013-01-09 02:27:00,45.5,23.2,29.96,NW,315,5.8,-999.0,41,-99.99,,,0.00,Acu-Link.com,2013-01-09 09:27:00,
2013-01-09 02:42:00,45.9,23.5,29.97,WNW,292,2.7,-999.0,41,-99.99,,,0.00,Acu-Link.com,2013-01-09 09:42:00,
2013-01-09 02:57:00,47.1,25.8,29.98,NE,45,2.7,-999.0,43,-99.99,,,0.00,Acu-Link.com,2013-01-09 09:57:00,
2013-01-09 03:12:00,45.7,22.2,29.99,NW,315,2.7,-999.0,39,-99.99,,,0.00,Acu-Link.com,2013-01-09 10:12:00,
2013-01-09 03:27:00,42.6,19.4,29.99,WNW,292,4.7,-999.0,39,-99.99,,,0.00,Acu-Link.com,2013-01-09 10:27:00,
2013-01-09 03:42:00,41.7,18.0,29.99,NNW,337,6.3,-999.0,38,-99.99,,,0.00,Acu-Link.com,2013-01-09 10:42:00,
2013-01-09 03:57:00,40.6,18.2,30.00,WSW,247,4.2,-999.0,40,-99.99,,,0.00,Acu-Link.com,2013-01-09 10:57:00,
2013-01-09 04:13:00,38.8,18.2,30.00,SSE,157,2.2,-999.0,43,-99.99,,,0.00,Acu-Link.com,2013-01-09 11:13:00,
2013-01-09 04:28:00,37.9,19.0,30.01,East,90,0.0,-999.0,46,-99.99,,,0.00,Acu-Link.com,2013-01-09 11:28:00,
2013-01-09 04:43:00,36.1,17.8,30.03,NE,45,0.0,-999.0,47,-99.99,,,0.00,Acu-Link.com,2013-01-09 11:43:00,
2013-01-09 04:58:00,35.8,17.6,30.03,SSW,202,2.2,-999.0,47,-99.99,,,0.00,Acu-Link.com,2013-01-09 11:58:00,
2013-01-09 05:13:00,34.2,18.0,30.05,SE,135,0.0,-999.0,51,-99.99,,,0.00,Acu-Link.com,2013-01-09 12:13:00,
2013-01-09 05:28:00,32.9,17.2,30.06,SW,225,0.0,-999.0,52,-99.99,,,0.00,Acu-Link.com,2013-01-09 12:28:00,
2013-01-09 05:43:00,31.6,17.3,30.06,WNW,292,0.0,-999.0,55,-99.99,,,0.00,Acu-Link.com,2013-01-09 12:43:00,
2013-01-09 05:58:00,31.1,17.3,30.07,WNW,292,0.0,-999.0,56,-99.99,,,0.00,Acu-Link.com,2013-01-09 12:58:00,
2013-01-09 06:13:00,30.2,17.2,30.09,SW,225,0.0,-999.0,58,-99.99,,,0.00,Acu-Link.com,2013-01-09 13:13:00,
2013-01-09 06:29:00,29.7,17.5,30.09,ESE,112,0.0,-999.0,60,-99.99,,,0.00,Acu-Link.com,2013-01-09 13:29:00,
2013-01-09 06:44:00,29.5,17.3,30.09,West,270,0.0,-999.0,60,-99.99,,,0.00,Acu-Link.com,2013-01-09 13:44:00,
2013-01-09 06:59:00,30.6,17.2,30.10,ENE,67,2.2,-999.0,57,-99.99,,,0.00,Acu-Link.com,2013-01-09 13:59:00,
2013-01-09 07:14:00,32.4,16.3,30.10,East,90,1.7,-999.0,51,-99.99,,,0.00,Acu-Link.com,2013-01-09 14:14:00,
2013-01-09 07:29:00,31.8,16.6,30.10,SE,135,0.0,-999.0,53,-99.99,,,0.00,Acu-Link.com,2013-01-09 14:29:00,
2013-01-09 07:44:00,34.7,18.0,30.11,ESE,112,1.1,-999.0,50,-99.99,,,0.00,Acu-Link.com,2013-01-09 14:44:00,
2013-01-09 07:59:00,37.4,18.0,30.11,SSE,157,3.7,-999.0,45,-99.99,,,0.00,Acu-Link.com,2013-01-09 14:59:00,
2013-01-09 08:14:00,38.5,18.0,30.11,West,270,4.2,-999.0,43,-99.99,,,0.00,Acu-Link.com,2013-01-09 15:14:00,
2013-01-09 08:29:00,42.8,21.3,30.12,NNW,337,1.7,-999.0,42,-99.99,,,0.00,Acu-Link.com,2013-01-09 15:29:00,
2013-01-09 08:45:00,46.2,22.0,30.11,West,270,1.7,-999.0,38,-99.99,,,0.00,Acu-Link.com,2013-01-09 15:45:00,
2013-01-09 09:00:00,47.3,21.7,30.10,NW,315,7.3,-999.0,36,-99.99,,,0.00,Acu-Link.com,2013-01-09 16:00:00,
2013-01-09 09:15:00,46.6,21.7,30.11,East,90,1.1,-999.0,37,-99.99,,,0.00,Acu-Link.com,2013-01-09 16:15:00,
2013-01-09 09:30:00,47.8,21.5,30.11,NNE,22,2.7,-999.0,35,-99.99,,,0.00,Acu-Link.com,2013-01-09 16:30:00,
2013-01-09 09:45:00,46.2,21.4,30.12,North,0,8.9,-999.0,37,-99.99,,,0.00,Acu-Link.com,2013-01-09 16:45:00,
2013-01-09 10:00:00,46.2,22.0,30.11,NNW,337,6.8,-999.0,38,-99.99,,,0.00,Acu-Link.com,2013-01-09 17:00:00,
2013-01-09 10:15:00,51.1,23.0,30.10,NNW,337,5.8,-999.0,33,-99.99,,,0.00,Acu-Link.com,2013-01-09 17:15:00,
2013-01-09 10:30:00,52.7,24.4,30.10,NW,315,3.2,-999.0,33,-99.99,,,0.00,Acu-Link.com,2013-01-09 17:30:00,
2013-01-09 10:45:00,52.7,24.4,30.10,NNW,337,1.1,-999.0,33,-99.99,,,0.00,Acu-Link.com,2013-01-09 17:45:00,
2013-01-09 11:01:00,54.1,24.1,30.10,NNW,337,4.7,-999.0,31,-99.99,,,0.00,Acu-Link.com,2013-01-09 18:01:00,
2013-01-09 11:16:00,52.9,24.6,30.10,NNW,337,2.7,-999.0,33,-99.99,,,0.00,Acu-Link.com,2013-01-09 18:16:00,
2013-01-09 11:31:00,54.3,24.3,30.08,NNW,337,3.2,-999.0,31,-99.99,,,0.00,Acu-Link.com,2013-01-09 18:31:00,
2013-01-09 11:46:00,57.4,26.2,30.07,West,270,5.3,-999.0,30,-99.99,,,0.00,Acu-Link.com,2013-01-09 18:46:00,
2013-01-09 12:01:00,57.9,26.7,30.06,SSW,202,4.2,-999.0,30,-99.99,,,0.00,Acu-Link.com,2013-01-09 19:01:00,
2013-01-09 12:16:00,57.7,27.3,30.04,SSW,202,1.7,-999.0,31,-99.99,,,0.00,Acu-Link.com,2013-01-09 19:16:00,
2013-01-09 12:32:00,58.1,27.6,30.03,ESE,112,3.7,-999.0,31,-99.99,,,0.00,Acu-Link.com,2013-01-09 19:32:00,
2013-01-09 12:47:00,59.2,28.6,30.03,NE,45,1.7,-999.0,31,-99.99,,,0.00,Acu-Link.com,2013-01-09 19:47:00,
2013-01-09 13:02:00,58.6,28.1,30.01,South,180,2.2,-999.0,31,-99.99,,,0.00,Acu-Link.com,2013-01-09 20:02:00,
2013-01-09 13:17:00,60.6,28.2,30.00,NW,315,3.2,-999.0,29,-99.99,,,0.00,Acu-Link.com,2013-01-09 20:17:00,
2013-01-09 13:32:00,61.7,28.3,30.00,NNW,337,4.7,-999.0,28,-99.99,,,0.00,Acu-Link.com,2013-01-09 20:32:00,
2013-01-09 13:47:00,61.2,28.7,30.00,SSW,202,2.7,-999.0,29,-99.99,,,0.00,Acu-Link.com,2013-01-09 20:47:00,
2013-01-09 14:02:00,62.4,28.0,29.99,NNW,337,5.3,-999.0,27,-99.99,,,0.00,Acu-Link.com,2013-01-09 21:02:00,
2013-01-09 14:17:00,62.8,28.3,29.98,East,90,7.8,-999.0,27,-99.99,,,0.00,Acu-Link.com,2013-01-09 21:17:00,
2013-01-09 14:32:00,61.7,27.4,29.98,East,90,5.8,-999.0,27,-99.99,,,0.00,Acu-Link.com,2013-01-09 21:32:00,
2013-01-09 14:47:00,60.3,27.1,29.99,East,90,2.7,-999.0,28,-99.99,,,0.00,Acu-Link.com,2013-01-09 21:47:00,
2013-01-09 15:03:00,60.8,25.7,29.98,ESE,112,2.7,-999.0,26,-99.99,,,0.00,Acu-Link.com,2013-01-09 22:03:00,
2013-01-09 15:18:00,61.3,25.2,29.97,NE,45,4.2,-999.0,25,-99.99,,,0.00,Acu-Link.com,2013-01-09 22:18:00,
2013-01-09 15:33:00,62.6,25.3,29.97,NE,45,7.3,-999.0,24,-99.99,,,0.00,Acu-Link.com,2013-01-09 22:33:00,
2013-01-09 15:48:00,60.6,25.5,29.96,ENE,67,2.7,-999.0,26,-99.99,,,0.00,Acu-Link.com,2013-01-09 22:48:00,
2013-01-09 16:03:00,60.3,25.3,29.95,NNW,337,1.7,-999.0,26,-99.99,,,0.00,Acu-Link.com,2013-01-09 23:03:00,
2013-01-09 16:18:00,60.1,26.0,29.95,South,180,2.7,-999.0,27,-99.99,,,0.00,Acu-Link.com,2013-01-09 23:18:00,
2013-01-09 16:33:00,60.6,26.4,29.95,West,270,4.2,-999.0,27,-99.99,,,0.00,Acu-Link.com,2013-01-09 23:33:00,
2013-01-09 16:48:00,61.3,26.1,29.96,ENE,67,1.1,-999.0,26,-99.99,,,0.00,Acu-Link.com,2013-01-09 23:48:00,
2013-01-09 17:03:00,57.7,25.7,29.95,South,180,0.0,-999.0,29,-99.99,,,0.00,Acu-Link.com,2013-01-10 00:03:00,
2013-01-09 17:19:00,55.4,25.3,29.96,NW,315,1.7,-999.0,31,-99.99,,,0.00,Acu-Link.com,2013-01-10 00:19:00,
2013-01-09 17:34:00,53.2,24.9,29.96,SSE,157,2.2,-999.0,33,-99.99,,,0.00,Acu-Link.com,2013-01-10 00:34:00,
2013-01-09 17:49:00,52.0,25.2,29.96,SE,135,3.7,-999.0,35,-99.99,,,0.00,Acu-Link.com,2013-01-10 00:49:00,
2013-01-09 18:04:00,50.9,25.6,29.97,SSE,157,2.7,-999.0,37,-99.99,,,0.00,Acu-Link.com,2013-01-10 01:04:00,
2013-01-09 18:19:00,49.3,25.4,29.97,South,180,1.7,-999.0,39,-99.99,,,0.00,Acu-Link.com,2013-01-10 01:19:00,
2013-01-09 18:34:00,47.3,25.4,29.95,ESE,112,1.7,-999.0,42,-99.99,,,0.00,Acu-Link.com,2013-01-10 01:34:00,
2013-01-09 18:49:00,46.6,25.3,29.96,ESE,112,0.0,-999.0,43,-99.99,,,0.00,Acu-Link.com,2013-01-10 01:49:00,
2013-01-09 19:04:00,46.4,25.1,29.96,WSW,247,1.7,-999.0,43,-99.99,,,0.00,Acu-Link.com,2013-01-10 02:04:00,
2013-01-09 19:19:00,45.7,25.1,29.96,South,180,0.0,-999.0,44,-99.99,,,0.00,Acu-Link.com,2013-01-10 02:19:00,
2013-01-09 19:35:00,45.0,25.0,29.96,NE,45,1.7,-999.0,45,-99.99,,,0.00,Acu-Link.com,2013-01-10 02:35:00,
2013-01-09 19:50:00,44.6,25.1,29.97,NNW,337,0.0,-999.0,46,-99.99,,,0.00,Acu-Link.com,2013-01-10 02:50:00,
2013-01-09 20:05:00,45.1,25.6,29.97,East,90,0.0,-999.0,46,-99.99,,,0.00,Acu-Link.com,2013-01-10 03:05:00,
2013-01-09 20:20:00,45.3,25.8,29.97,NNW,337,0.0,-999.0,46,-99.99,,,0.00,Acu-Link.com,2013-01-10 03:20:00,
2013-01-09 20:35:00,44.4,25.4,29.97,North,0,0.0,-999.0,47,-99.99,,,0.00,Acu-Link.com,2013-01-10 03:35:00,
2013-01-09 20:50:00,44.1,25.7,29.97,SSE,157,2.7,-999.0,48,-99.99,,,0.00,Acu-Link.com,2013-01-10 03:50:00,
2013-01-09 21:05:00,47.8,27.0,29.97,South,180,2.7,-999.0,44,-99.99,,,0.00,Acu-Link.com,2013-01-10 04:05:00,
2013-01-09 21:20:00,46.9,27.2,29.96,SE,135,0.0,-999.0,46,-99.99,,,0.00,Acu-Link.com,2013-01-10 04:20:00,
2013-01-09 21:35:00,46.6,26.4,29.97,NW,315,1.1,-999.0,45,-99.99,,,0.00,Acu-Link.com,2013-01-10 04:35:00,
2013-01-09 21:51:00,45.0,26.5,29.97,NW,315,1.7,-999.0,48,-99.99,,,0.00,Acu-Link.com,2013-01-10 04:51:00,
2013-01-09 22:06:00,45.0,27.0,29.97,West,270,1.7,-999.0,49,-99.99,,,0.00,Acu-Link.com,2013-01-10 05:06:00,
2013-01-09 22:21:00,44.8,27.3,29.97,WSW,247,1.7,-999.0,50,-99.99,,,0.00,Acu-Link.com,2013-01-10 05:21:00,
2013-01-09 22:36:00,43.9,27.0,29.97,SW,225,1.1,-999.0,51,-99.99,,,0.00,Acu-Link.com,2013-01-10 05:36:00,
2013-01-09 22:51:00,42.8,26.9,29.96,SW,225,0.0,-999.0,53,-99.99,,,0.00,Acu-Link.com,2013-01-10 05:51:00,
2013-01-09 23:06:00,42.4,26.9,29.96,West,270,0.0,-999.0,54,-99.99,,,0.00,Acu-Link.com,2013-01-10 06:06:00,
2013-01-09 23:21:00,40.8,26.8,29.96,North,0,0.0,-999.0,57,-99.99,,,0.00,Acu-Link.com,2013-01-10 06:21:00,
2013-01-09 23:36:00,39.0,26.3,29.95,West,270,0.0,-999.0,60,-99.99,,,0.00,Acu-Link.com,2013-01-10 06:36:00,
2013-01-09 23:51:00,38.1,26.6,29.95,WNW,292,0.0,-999.0,63,-99.99,,,0.00,Acu-Link.com,2013-01-10 06:51:00,